P/v Golden Gate — WDE5665 — position and weather

sailwx.info

Track history (hours):
 
Tides and Currents Weather Stations Pressure Air Temp Water Temp Dewpoint Dewpoint Depression Visibility Wind Speed Wind Dir Waves Ship Positions

P/v Golden Gate

More information available from US FCC via Universal Licensing System and Coast Guard Vessel Documentation Center.

Last reported at 2014-Aug-28 10:33 UTC. Time now 2014-Aug-28 11:23 UTC.
Position N 37°48' W 122°24'.

Length 23 m; draft 2 m.

Type: Pilot. MMSI: 367370010.

Date/timePositionNaut miles runAvg speedWind from/ knotsBaromVisibWave heightAir tempDewpointWater temp
2014-Aug-28 10:33N 37°48' W 122°24'0 0.0
2014-Aug-28 09:33N 37°48' W 122°24'0 0.0
2014-Aug-28 08:34N 37°48' W 122°24'1 1.5
2014-Aug-28 07:34N 37°49' W 122°24'1 1.5
2014-Aug-28 06:33N 37°48' W 122°24'0 0.0
2014-Aug-28 05:33N 37°48' W 122°24'1 0.7
2014-Aug-28 04:33N 37°49' W 122°24'5 5.2
2014-Aug-28 03:31N 37°48' W 122°31'7 7.2
2014-Aug-28 02:33N 37°48' W 122°22'1 1.4
2014-Aug-28 01:33N 37°48' W 122°24'3 1.4
2014-Aug-27 23:34N 37°48' W 122°20'2 2.4
2014-Aug-27 22:33N 37°48' W 122°23'3 2.7
2014-Aug-27 21:33N 37°46' W 122°22'1 1.1
2014-Aug-27 20:34N 37°45' W 122°22'3 3.3
2014-Aug-27 19:33N 37°48' W 122°24'0 0.0
2014-Aug-27 18:33N 37°48' W 122°24'0 0.0
2014-Aug-27 17:33N 37°48' W 122°24'0 0.1
2014-Aug-27 16:33N 37°48' W 122°24'3 2.5
2014-Aug-27 15:34N 37°46' W 122°22'1 1.0
2014-Aug-27 14:33N 37°46' W 122°20'3 3.3
2014-Aug-27 13:34N 37°48' W 122°24'0 0.1
2014-Aug-27 12:33N 37°48' W 122°24'0 0.0
2014-Aug-27 11:33N 37°48' W 122°24'2 2.4
2014-Aug-27 10:33N 37°46' W 122°22'2 2.4
2014-Aug-27 09:33N 37°48' W 122°24'0 0.1
2014-Aug-27 08:33N 37°48' W 122°23'0 0.3
2014-Aug-27 07:33N 37°48' W 122°24'0 0.0
2014-Aug-27 06:33N 37°48' W 122°24'0 0.0
2014-Aug-27 05:33N 37°48' W 122°24'0 0.0
2014-Aug-27 04:33N 37°48' W 122°24'0 0.0
2014-Aug-27 03:33N 37°48' W 122°24'0 0.0
2014-Aug-27 02:33N 37°48' W 122°24'4 4.0
2014-Aug-27 01:33N 37°49' W 122°19'4 4.0
2014-Aug-27 00:33N 37°48' W 122°24'0 0.0
2014-Aug-26 23:33N 37°48' W 122°24'0 0.0
2014-Aug-26 22:33N 37°48' W 122°24'1 1.0
2014-Aug-26 21:33N 37°49' W 122°24'1 1.0
2014-Aug-26 20:33N 37°48' W 122°24'0 0.0
2014-Aug-26 19:33N 37°48' W 122°24'0 0.0
2014-Aug-26 18:33N 37°48' W 122°24'0 0.0
2014-Aug-26 17:33N 37°48' W 122°24'0 0.0
2014-Aug-26 16:34N 37°48' W 122°24'4 4.1
2014-Aug-26 15:33N 37°48' W 122°19'2 1.6
2014-Aug-26 14:34N 37°49' W 122°20'0 0.3
2014-Aug-26 13:33N 37°48' W 122°21'1 0.8
2014-Aug-26 12:34N 37°48' W 122°22'2 1.8
2014-Aug-26 11:33N 37°48' W 122°24'0 0.3
2014-Aug-26 10:33N 37°48' W 122°23'0 0.3
2014-Aug-26 09:33N 37°48' W 122°24'0 0.0
2014-Aug-26 08:34N 37°48' W 122°24'1 1.4
2014-Aug-26 07:33N 37°49' W 122°25'1 1.4
2014-Aug-26 06:33N 37°48' W 122°24'0 0.0
2014-Aug-26 05:33N 37°48' W 122°24'0 0.0
2014-Aug-26 04:33N 37°48' W 122°24'3 2.8
2014-Aug-26 03:33N 37°46' W 122°21'2 2.0
2014-Aug-26 02:34N 37°48' W 122°21'2 2.2
2014-Aug-26 01:33N 37°48' W 122°24'1 0.6
2014-Aug-26 00:33N 37°48' W 122°23'1 0.6
2014-Aug-25 23:33N 37°48' W 122°24'1 1.3
2014-Aug-25 22:33N 37°49' W 122°25'0 0.1
2014-Aug-25 21:33N 37°49' W 122°25'1 1.2
2014-Aug-25 20:33N 37°48' W 122°24'3 3.3
2014-Aug-25 19:33N 37°48' W 122°20'1 1.0
2014-Aug-25 18:33N 37°49' W 122°19'4 3.7
2014-Aug-25 17:33N 37°48' W 122°24'0 0.0
2014-Aug-25 16:33N 37°48' W 122°24'4 3.8
2014-Aug-25 15:33N 37°49' W 122°28'6 5.8
2014-Aug-25 14:33N 37°48' W 122°21'1 1.1
2014-Aug-25 13:34N 37°49' W 122°20'3 3.1
2014-Aug-25 12:33N 37°48' W 122°24'0 0.0
2014-Aug-25 11:33N 37°48' W 122°24'0 0.0
2014-Aug-25 10:33N 37°48' W 122°24'0 0.0
2014-Aug-25 09:33N 37°48' W 122°24'0 0.0
2014-Aug-25 08:33N 37°48' W 122°24'0 0.0
2014-Aug-25 07:33N 37°48' W 122°24'0 0.0
2014-Aug-25 06:33N 37°48' W 122°24'0 0.0
2014-Aug-25 05:33N 37°48' W 122°24'2 2.1
2014-Aug-25 04:34N 37°49' W 122°26'2 2.1
2014-Aug-25 03:33N 37°48' W 122°24'0 0.0
2014-Aug-25 02:33N 37°48' W 122°24'3 3.1
2014-Aug-25 01:32N 37°49' W 122°28'3 2.7
2014-Aug-25 00:33N 37°49' W 122°24'1 0.9
2014-Aug-24 23:33N 37°48' W 122°24'0 0.0
2014-Aug-24 22:33N 37°48' W 122°24'1 0.6
2014-Aug-24 21:33N 37°49' W 122°24'0 0.4
2014-Aug-24 20:33N 37°48' W 122°24'0 0.2
2014-Aug-24 19:33N 37°48' W 122°24'9 7.9
2014-Aug-24 18:27N 37°47' W 122°35'9 9.8
2014-Aug-24 17:33N 37°48' W 122°24'0 0.0
2014-Aug-24 16:33N 37°48' W 122°24'3 3.3
2014-Aug-24 15:33N 37°46' W 122°21'2 2.2
2014-Aug-24 14:33N 37°48' W 122°20'3 2.7
2014-Aug-24 13:33N 37°48' W 122°24'0 0.0
2014-Aug-24 12:33N 37°48' W 122°24'0 0.0
2014-Aug-24 11:33N 37°48' W 122°24'0 0.0
2014-Aug-24 10:33N 37°48' W 122°24'0 0.0
2014-Aug-24 09:33N 37°48' W 122°24'0 0.0
2014-Aug-24 08:33N 37°48' W 122°24'0 0.0
2014-Aug-24 07:33N 37°48' W 122°24'0 0.0
2014-Aug-24 06:33N 37°48' W 122°24'0 0.0
2014-Aug-24 05:33N 37°48' W 122°24'0 0.0
2014-Aug-24 04:33N 37°48' W 122°24'4 4.0
2014-Aug-24 03:33N 37°49' W 122°19'1010.4
2014-Aug-24 02:33N 37°48' W 122°32'3 3.3
2014-Aug-24 01:33N 37°49' W 122°28'6 6.2
2014-Aug-24 00:33N 37°48' W 122°21'0 0.3
2014-Aug-23 23:33N 37°48' W 122°20'3 2.7
2014-Aug-23 22:33N 37°48' W 122°24'3 3.3
2014-Aug-23 21:33N 37°46' W 122°21'3 3.3
2014-Aug-23 20:33N 37°48' W 122°24'0 0.0
2014-Aug-23 19:33N 37°48' W 122°24'0 0.0
2014-Aug-23 03:33N 37°48' W 122°24'0 0.0
2014-Aug-23 02:33N 37°48' W 122°24'0 0.0
2014-Aug-23 01:33N 37°48' W 122°24'0 0.0
2014-Aug-23 00:33N 37°48' W 122°24'0 0.0
2014-Aug-22 23:33N 37°48' W 122°24'0 0.4
2014-Aug-22 22:33N 37°48' W 122°23'3 2.9
2014-Aug-22 21:33N 37°49' W 122°27'1 1.1
2014-Aug-22 20:33N 37°49' W 122°25'2 2.5
2014-Aug-22 19:33N 37°48' W 122°23'1 0.8
2014-Aug-22 18:33N 37°48' W 122°24'4 3.9
2014-Aug-22 17:33N 37°45' W 122°21'4 3.9
2014-Aug-22 16:33N 37°48' W 122°24'0 0.0
2014-Aug-22 15:33N 37°48' W 122°24'1 1.0
2014-Aug-22 14:22N 37°49' W 122°25'7 8.2
2014-Aug-22 13:33N 37°48' W 122°34'8 7.9
2014-Aug-22 12:33N 37°48' W 122°24'0 0.0
2014-Aug-22 11:33N 37°48' W 122°24'2 2.1
2014-Aug-22 10:34N 37°48' W 122°21'1312.8
2014-Aug-22 09:31N 37°46' W 122°38'1515.4
2014-Aug-22 08:33N 37°48' W 122°19'4 3.5
2014-Aug-22 07:33N 37°48' W 122°24'0 0.0
2014-Aug-22 06:33N 37°48' W 122°24'4 4.0
2014-Aug-22 05:34N 37°49' W 122°29'4 4.0
2014-Aug-22 04:33N 37°48' W 122°24'0 0.0
2014-Aug-22 03:33N 37°48' W 122°24'0 0.0
2014-Aug-22 02:33N 37°48' W 122°24'0 0.0
2014-Aug-22 01:33N 37°48' W 122°24'0 0.0
2014-Aug-22 00:33N 37°48' W 122°24'0 0.0
2014-Aug-21 23:33N 37°48' W 122°24'0 0.0
2014-Aug-21 22:33N 37°48' W 122°24'0 0.0
2014-Aug-21 21:33N 37°48' W 122°24'0 0.0
2014-Aug-21 20:33N 37°48' W 122°24'2 2.4
2014-Aug-21 19:34N 37°46' W 122°22'2 2.4
2014-Aug-21 18:33N 37°48' W 122°24'3 3.3
2014-Aug-21 17:33N 37°48' W 122°20'3 3.3
2014-Aug-21 16:33N 37°48' W 122°24'3 2.9
2014-Aug-21 15:33N 37°49' W 122°20'1 0.9
2014-Aug-21 14:34N 37°49' W 122°19'4 3.7
2014-Aug-21 13:33N 37°48' W 122°24'0 0.0
2014-Aug-21 12:33N 37°48' W 122°24'0 0.0
2014-Aug-21 11:33N 37°48' W 122°24'0 0.0
2014-Aug-21 10:33N 37°48' W 122°24'0 0.0
2014-Aug-21 09:33N 37°48' W 122°24'0 0.0
2014-Aug-21 08:33N 37°48' W 122°24'4 4.0
2014-Aug-21 07:34N 37°45' W 122°20'4 4.0
2014-Aug-21 06:33N 37°48' W 122°24'0 0.0
2014-Aug-21 05:33N 37°48' W 122°24'3 3.4
2014-Aug-21 04:33N 37°49' W 122°20'3 3.3
2014-Aug-21 03:33N 37°46' W 122°21'3 3.3
2014-Aug-21 02:33N 37°49' W 122°20'8 7.1
2014-Aug-21 01:25N 37°49' W 122°30'5 5.8
2014-Aug-21 00:33N 37°48' W 122°24'5 4.5
2014-Aug-20 23:33N 37°44' W 122°20'5 4.6
2014-Aug-20 22:33N 37°48' W 122°24'0 0.1
2014-Aug-20 21:33N 37°48' W 122°24'3 3.5
2014-Aug-20 20:33N 37°48' W 122°19'3 3.5
2014-Aug-20 19:33N 37°48' W 122°24'3 3.3
2014-Aug-20 18:34N 37°48' W 122°20'1 1.3
2014-Aug-20 17:34N 37°48' W 122°21'2 1.6
2014-Aug-20 16:33N 37°47' W 122°20'4 3.5
2014-Aug-20 15:23N 37°49' W 122°25'5 5.9
2014-Aug-20 14:33N 37°45' W 122°21'3 2.6
2014-Aug-20 13:34N 37°47' W 122°23'2 2.4
2014-Aug-20 12:34N 37°49' W 122°20'3 2.8
2014-Aug-20 11:33N 37°48' W 122°24'0 0.1
2014-Aug-20 10:33N 37°48' W 122°24'0 0.0
2014-Aug-20 09:33N 37°48' W 122°24'0 0.0
2014-Aug-20 08:33N 37°48' W 122°24'4 3.7
2014-Aug-20 07:34N 37°45' W 122°21'4 3.6
2014-Aug-20 06:33N 37°48' W 122°24'0 0.0
2014-Aug-20 05:33N 37°48' W 122°24'1110.3
2014-Aug-20 04:28N 37°46' W 122°38'1314.5
2014-Aug-20 03:33N 37°45' W 122°21'3 3.3
2014-Aug-20 02:33N 37°48' W 122°24'2 1.5
2014-Aug-20 01:33N 37°48' W 122°22'2 1.5
2014-Aug-20 00:33N 37°48' W 122°24'3 3.2
2014-Aug-19 23:33N 37°45' W 122°21'4 3.9
2014-Aug-19 22:33N 37°49' W 122°24'4 3.8
2014-Aug-19 21:33N 37°48' W 122°19'2 2.4
2014-Aug-19 20:33N 37°46' W 122°21'3 3.2
2014-Aug-19 19:33N 37°48' W 122°24'0 0.0
2014-Aug-19 18:33N 37°48' W 122°24'3 3.0
2014-Aug-19 17:33N 37°49' W 122°27'3 3.0
2014-Aug-19 16:33N 37°48' W 122°24'1 0.9
2014-Aug-19 15:12N 37°49' W 122°25'4 5.6
2014-Aug-19 14:33N 37°46' W 122°22'1 1.4
2014-Aug-19 13:33N 37°45' W 122°21'4 3.8
2014-Aug-19 12:33N 37°48' W 122°24'0 0.0
2014-Aug-19 11:33N 37°48' W 122°24'1212.1
2014-Aug-19 10:32N 37°45' W 122°39'1414.6
2014-Aug-19 09:33N 37°47' W 122°21'2 2.2
2014-Aug-19 08:33N 37°48' W 122°24'1 0.5
2014-Aug-19 07:33N 37°48' W 122°23'2 2.3
2014-Aug-19 06:34N 37°48' W 122°20'11 9.2
2014-Aug-19 05:22N 37°47' W 122°34'1012.6
2014-Aug-19 04:33N 37°46' W 122°22'1 0.8
2014-Aug-19 03:34N 37°47' W 122°21'2 2.0
2014-Aug-19 02:33N 37°45' W 122°21'4 4.1
2014-Aug-19 01:33N 37°48' W 122°24'0 0.0
2014-Aug-19 00:33N 37°48' W 122°24'0 0.3
2014-Aug-18 23:34N 37°48' W 122°23'2 2.3
2014-Aug-18 22:33N 37°49' W 122°26'2 2.1
2014-Aug-18 21:34N 37°48' W 122°24'0 0.0
2014-Aug-18 20:33N 37°48' W 122°24'3 2.7
2014-Aug-18 19:33N 37°49' W 122°20'1211.7
2014-Aug-18 18:30N 37°47' W 122°36'1415.0
2014-Aug-18 17:33N 37°48' W 122°18'4 4.5
2014-Aug-18 16:33N 37°48' W 122°24'0 0.0
2014-Aug-18 15:33N 37°48' W 122°24'1 0.9
2014-Aug-18 14:15N 37°49' W 122°25'1 1.8
2014-Aug-18 13:33N 37°48' W 122°24'2 1.9
2014-Aug-18 12:33N 37°47' W 122°22'1 0.7
2014-Aug-18 11:34N 37°47' W 122°23'1 1.4
2014-Aug-18 10:33N 37°48' W 122°24'  
Track history (hours):
 
Tides and Currents Weather Stations Pressure Air Temp Water Temp Dewpoint Dewpoint Depression Visibility Wind Speed Wind Dir Waves Ship Positions

P/v Golden Gate

More information available from US FCC via Universal Licensing System and Coast Guard Vessel Documentation Center.

Last reported at 2014-Aug-28 10:33 UTC. Time now 2014-Aug-28 11:23 UTC.
Position N 37°48' W 122°24'.

Length 23 m; draft 2 m.

Type: Pilot. MMSI: 367370010.

Date/timePositionNaut miles runAvg speedWind from/ knotsBaromVisibWave heightAir tempDewpointWater temp
2014-Aug-28 10:33N 37°48' W 122°24'0 0.0
2014-Aug-28 09:33N 37°48' W 122°24'0 0.0
2014-Aug-28 08:34N 37°48' W 122°24'1 1.5
2014-Aug-28 07:34N 37°49' W 122°24'1 1.5
2014-Aug-28 06:33N 37°48' W 122°24'0 0.0
2014-Aug-28 05:33N 37°48' W 122°24'1 0.7
2014-Aug-28 04:33N 37°49' W 122°24'5 5.2
2014-Aug-28 03:31N 37°48' W 122°31'7 7.2
2014-Aug-28 02:33N 37°48' W 122°22'1 1.4
2014-Aug-28 01:33N 37°48' W 122°24'3 1.4
2014-Aug-27 23:34N 37°48' W 122°20'2 2.4
2014-Aug-27 22:33N 37°48' W 122°23'3 2.7
2014-Aug-27 21:33N 37°46' W 122°22'1 1.1
2014-Aug-27 20:34N 37°45' W 122°22'3 3.3
2014-Aug-27 19:33N 37°48' W 122°24'0 0.0
2014-Aug-27 18:33N 37°48' W 122°24'0 0.0
2014-Aug-27 17:33N 37°48' W 122°24'0 0.1
2014-Aug-27 16:33N 37°48' W 122°24'3 2.5
2014-Aug-27 15:34N 37°46' W 122°22'1 1.0
2014-Aug-27 14:33N 37°46' W 122°20'3 3.3
2014-Aug-27 13:34N 37°48' W 122°24'0 0.1
2014-Aug-27 12:33N 37°48' W 122°24'0 0.0
2014-Aug-27 11:33N 37°48' W 122°24'2 2.4
2014-Aug-27 10:33N 37°46' W 122°22'2 2.4
2014-Aug-27 09:33N 37°48' W 122°24'0 0.1
2014-Aug-27 08:33N 37°48' W 122°23'0 0.3
2014-Aug-27 07:33N 37°48' W 122°24'0 0.0
2014-Aug-27 06:33N 37°48' W 122°24'0 0.0
2014-Aug-27 05:33N 37°48' W 122°24'0 0.0
2014-Aug-27 04:33N 37°48' W 122°24'0 0.0
2014-Aug-27 03:33N 37°48' W 122°24'0 0.0
2014-Aug-27 02:33N 37°48' W 122°24'4 4.0
2014-Aug-27 01:33N 37°49' W 122°19'4 4.0
2014-Aug-27 00:33N 37°48' W 122°24'0 0.0
2014-Aug-26 23:33N 37°48' W 122°24'0 0.0
2014-Aug-26 22:33N 37°48' W 122°24'1 1.0
2014-Aug-26 21:33N 37°49' W 122°24'1 1.0
2014-Aug-26 20:33N 37°48' W 122°24'0 0.0
2014-Aug-26 19:33N 37°48' W 122°24'0 0.0
2014-Aug-26 18:33N 37°48' W 122°24'0 0.0
2014-Aug-26 17:33N 37°48' W 122°24'0 0.0
2014-Aug-26 16:34N 37°48' W 122°24'4 4.1
2014-Aug-26 15:33N 37°48' W 122°19'2 1.6
2014-Aug-26 14:34N 37°49' W 122°20'0 0.3
2014-Aug-26 13:33N 37°48' W 122°21'1 0.8
2014-Aug-26 12:34N 37°48' W 122°22'2 1.8
2014-Aug-26 11:33N 37°48' W 122°24'0 0.3
2014-Aug-26 10:33N 37°48' W 122°23'0 0.3
2014-Aug-26 09:33N 37°48' W 122°24'0 0.0
2014-Aug-26 08:34N 37°48' W 122°24'1 1.4
2014-Aug-26 07:33N 37°49' W 122°25'1 1.4
2014-Aug-26 06:33N 37°48' W 122°24'0 0.0
2014-Aug-26 05:33N 37°48' W 122°24'0 0.0
2014-Aug-26 04:33N 37°48' W 122°24'3 2.8
2014-Aug-26 03:33N 37°46' W 122°21'2 2.0
2014-Aug-26 02:34N 37°48' W 122°21'2 2.2
2014-Aug-26 01:33N 37°48' W 122°24'1 0.6
2014-Aug-26 00:33N 37°48' W 122°23'1 0.6
2014-Aug-25 23:33N 37°48' W 122°24'1 1.3
2014-Aug-25 22:33N 37°49' W 122°25'0 0.1
2014-Aug-25 21:33N 37°49' W 122°25'1 1.2
2014-Aug-25 20:33N 37°48' W 122°24'3 3.3
2014-Aug-25 19:33N 37°48' W 122°20'1 1.0
2014-Aug-25 18:33N 37°49' W 122°19'4 3.7
2014-Aug-25 17:33N 37°48' W 122°24'0 0.0
2014-Aug-25 16:33N 37°48' W 122°24'4 3.8
2014-Aug-25 15:33N 37°49' W 122°28'6 5.8
2014-Aug-25 14:33N 37°48' W 122°21'1 1.1
2014-Aug-25 13:34N 37°49' W 122°20'3 3.1
2014-Aug-25 12:33N 37°48' W 122°24'0 0.0
2014-Aug-25 11:33N 37°48' W 122°24'0 0.0
2014-Aug-25 10:33N 37°48' W 122°24'0 0.0
2014-Aug-25 09:33N 37°48' W 122°24'0 0.0
2014-Aug-25 08:33N 37°48' W 122°24'0 0.0
2014-Aug-25 07:33N 37°48' W 122°24'0 0.0
2014-Aug-25 06:33N 37°48' W 122°24'0 0.0
2014-Aug-25 05:33N 37°48' W 122°24'2 2.1
2014-Aug-25 04:34N 37°49' W 122°26'2 2.1
2014-Aug-25 03:33N 37°48' W 122°24'0 0.0
2014-Aug-25 02:33N 37°48' W 122°24'3 3.1
2014-Aug-25 01:32N 37°49' W 122°28'3 2.7
2014-Aug-25 00:33N 37°49' W 122°24'1 0.9
2014-Aug-24 23:33N 37°48' W 122°24'0 0.0
2014-Aug-24 22:33N 37°48' W 122°24'1 0.6
2014-Aug-24 21:33N 37°49' W 122°24'0 0.4
2014-Aug-24 20:33N 37°48' W 122°24'0 0.2
2014-Aug-24 19:33N 37°48' W 122°24'9 7.9
2014-Aug-24 18:27N 37°47' W 122°35'9 9.8
2014-Aug-24 17:33N 37°48' W 122°24'0 0.0
2014-Aug-24 16:33N 37°48' W 122°24'3 3.3
2014-Aug-24 15:33N 37°46' W 122°21'2 2.2
2014-Aug-24 14:33N 37°48' W 122°20'3 2.7
2014-Aug-24 13:33N 37°48' W 122°24'0 0.0
2014-Aug-24 12:33N 37°48' W 122°24'0 0.0
2014-Aug-24 11:33N 37°48' W 122°24'0 0.0
2014-Aug-24 10:33N 37°48' W 122°24'0 0.0
2014-Aug-24 09:33N 37°48' W 122°24'0 0.0
2014-Aug-24 08:33N 37°48' W 122°24'0 0.0
2014-Aug-24 07:33N 37°48' W 122°24'0 0.0
2014-Aug-24 06:33N 37°48' W 122°24'0 0.0
2014-Aug-24 05:33N 37°48' W 122°24'0 0.0
2014-Aug-24 04:33N 37°48' W 122°24'4 4.0
2014-Aug-24 03:33N 37°49' W 122°19'1010.4
2014-Aug-24 02:33N 37°48' W 122°32'3 3.3
2014-Aug-24 01:33N 37°49' W 122°28'6 6.2
2014-Aug-24 00:33N 37°48' W 122°21'0 0.3
2014-Aug-23 23:33N 37°48' W 122°20'3 2.7
2014-Aug-23 22:33N 37°48' W 122°24'3 3.3
2014-Aug-23 21:33N 37°46' W 122°21'3 3.3
2014-Aug-23 20:33N 37°48' W 122°24'0 0.0
2014-Aug-23 19:33N 37°48' W 122°24'0 0.0
2014-Aug-23 03:33N 37°48' W 122°24'0 0.0
2014-Aug-23 02:33N 37°48' W 122°24'0 0.0
2014-Aug-23 01:33N 37°48' W 122°24'0 0.0
2014-Aug-23 00:33N 37°48' W 122°24'0 0.0
2014-Aug-22 23:33N 37°48' W 122°24'0 0.4
2014-Aug-22 22:33N 37°48' W 122°23'3 2.9
2014-Aug-22 21:33N 37°49' W 122°27'1 1.1
2014-Aug-22 20:33N 37°49' W 122°25'2 2.5
2014-Aug-22 19:33N 37°48' W 122°23'1 0.8
2014-Aug-22 18:33N 37°48' W 122°24'4 3.9
2014-Aug-22 17:33N 37°45' W 122°21'4 3.9
2014-Aug-22 16:33N 37°48' W 122°24'0 0.0
2014-Aug-22 15:33N 37°48' W 122°24'1 1.0
2014-Aug-22 14:22N 37°49' W 122°25'7 8.2
2014-Aug-22 13:33N 37°48' W 122°34'8 7.9
2014-Aug-22 12:33N 37°48' W 122°24'0 0.0
2014-Aug-22 11:33N 37°48' W 122°24'2 2.1
2014-Aug-22 10:34N 37°48' W 122°21'1312.8
2014-Aug-22 09:31N 37°46' W 122°38'1515.4
2014-Aug-22 08:33N 37°48' W 122°19'4 3.5
2014-Aug-22 07:33N 37°48' W 122°24'0 0.0
2014-Aug-22 06:33N 37°48' W 122°24'4 4.0
2014-Aug-22 05:34N 37°49' W 122°29'4 4.0
2014-Aug-22 04:33N 37°48' W 122°24'0 0.0
2014-Aug-22 03:33N 37°48' W 122°24'0 0.0
2014-Aug-22 02:33N 37°48' W 122°24'0 0.0
2014-Aug-22 01:33N 37°48' W 122°24'0 0.0
2014-Aug-22 00:33N 37°48' W 122°24'0 0.0
2014-Aug-21 23:33N 37°48' W 122°24'0 0.0
2014-Aug-21 22:33N 37°48' W 122°24'0 0.0
2014-Aug-21 21:33N 37°48' W 122°24'0 0.0
2014-Aug-21 20:33N 37°48' W 122°24'2 2.4
2014-Aug-21 19:34N 37°46' W 122°22'2 2.4
2014-Aug-21 18:33N 37°48' W 122°24'3 3.3
2014-Aug-21 17:33N 37°48' W 122°20'3 3.3
2014-Aug-21 16:33N 37°48' W 122°24'3 2.9
2014-Aug-21 15:33N 37°49' W 122°20'1 0.9
2014-Aug-21 14:34N 37°49' W 122°19'4 3.7
2014-Aug-21 13:33N 37°48' W 122°24'0 0.0
2014-Aug-21 12:33N 37°48' W 122°24'0 0.0
2014-Aug-21 11:33N 37°48' W 122°24'0 0.0
2014-Aug-21 10:33N 37°48' W 122°24'0 0.0
2014-Aug-21 09:33N 37°48' W 122°24'0 0.0
2014-Aug-21 08:33N 37°48' W 122°24'4 4.0
2014-Aug-21 07:34N 37°45' W 122°20'4 4.0
2014-Aug-21 06:33N 37°48' W 122°24'0 0.0
2014-Aug-21 05:33N 37°48' W 122°24'3 3.4
2014-Aug-21 04:33N 37°49' W 122°20'3 3.3
2014-Aug-21 03:33N 37°46' W 122°21'3 3.3
2014-Aug-21 02:33N 37°49' W 122°20'8 7.1
2014-Aug-21 01:25N 37°49' W 122°30'5 5.8
2014-Aug-21 00:33N 37°48' W 122°24'5 4.5
2014-Aug-20 23:33N 37°44' W 122°20'5 4.6
2014-Aug-20 22:33N 37°48' W 122°24'0 0.1
2014-Aug-20 21:33N 37°48' W 122°24'3 3.5
2014-Aug-20 20:33N 37°48' W 122°19'3 3.5
2014-Aug-20 19:33N 37°48' W 122°24'3 3.3
2014-Aug-20 18:34N 37°48' W 122°20'1 1.3
2014-Aug-20 17:34N 37°48' W 122°21'2 1.6
2014-Aug-20 16:33N 37°47' W 122°20'4 3.5
2014-Aug-20 15:23N 37°49' W 122°25'5 5.9
2014-Aug-20 14:33N 37°45' W 122°21'3 2.6
2014-Aug-20 13:34N 37°47' W 122°23'2 2.4
2014-Aug-20 12:34N 37°49' W 122°20'3 2.8
2014-Aug-20 11:33N 37°48' W 122°24'0 0.1
2014-Aug-20 10:33N 37°48' W 122°24'0 0.0
2014-Aug-20 09:33N 37°48' W 122°24'0 0.0
2014-Aug-20 08:33N 37°48' W 122°24'4 3.7
2014-Aug-20 07:34N 37°45' W 122°21'4 3.6
2014-Aug-20 06:33N 37°48' W 122°24'0 0.0
2014-Aug-20 05:33N 37°48' W 122°24'1110.3
2014-Aug-20 04:28N 37°46' W 122°38'1314.5
2014-Aug-20 03:33N 37°45' W 122°21'3 3.3
2014-Aug-20 02:33N 37°48' W 122°24'2 1.5
2014-Aug-20 01:33N 37°48' W 122°22'2 1.5
2014-Aug-20 00:33N 37°48' W 122°24'3 3.2
2014-Aug-19 23:33N 37°45' W 122°21'4 3.9
2014-Aug-19 22:33N 37°49' W 122°24'4 3.8
2014-Aug-19 21:33N 37°48' W 122°19'2 2.4
2014-Aug-19 20:33N 37°46' W 122°21'3 3.2
2014-Aug-19 19:33N 37°48' W 122°24'0 0.0
2014-Aug-19 18:33N 37°48' W 122°24'3 3.0
2014-Aug-19 17:33N 37°49' W 122°27'3 3.0
2014-Aug-19 16:33N 37°48' W 122°24'1 0.9
2014-Aug-19 15:12N 37°49' W 122°25'4 5.6
2014-Aug-19 14:33N 37°46' W 122°22'1 1.4
2014-Aug-19 13:33N 37°45' W 122°21'4 3.8
2014-Aug-19 12:33N 37°48' W 122°24'0 0.0
2014-Aug-19 11:33N 37°48' W 122°24'1212.1
2014-Aug-19 10:32N 37°45' W 122°39'1414.6
2014-Aug-19 09:33N 37°47' W 122°21'2 2.2
2014-Aug-19 08:33N 37°48' W 122°24'1 0.5
2014-Aug-19 07:33N 37°48' W 122°23'2 2.3
2014-Aug-19 06:34N 37°48' W 122°20'11 9.2
2014-Aug-19 05:22N 37°47' W 122°34'1012.6
2014-Aug-19 04:33N 37°46' W 122°22'1 0.8
2014-Aug-19 03:34N 37°47' W 122°21'2 2.0
2014-Aug-19 02:33N 37°45' W 122°21'4 4.1
2014-Aug-19 01:33N 37°48' W 122°24'0 0.0
2014-Aug-19 00:33N 37°48' W 122°24'0 0.3
2014-Aug-18 23:34N 37°48' W 122°23'2 2.3
2014-Aug-18 22:33N 37°49' W 122°26'2 2.1
2014-Aug-18 21:34N 37°48' W 122°24'0 0.0
2014-Aug-18 20:33N 37°48' W 122°24'3 2.7
2014-Aug-18 19:33N 37°49' W 122°20'1211.7
2014-Aug-18 18:30N 37°47' W 122°36'1415.0
2014-Aug-18 17:33N 37°48' W 122°18'4 4.5
2014-Aug-18 16:33N 37°48' W 122°24'0 0.0
2014-Aug-18 15:33N 37°48' W 122°24'1 0.9
2014-Aug-18 14:15N 37°49' W 122°25'1 1.8
2014-Aug-18 13:33N 37°48' W 122°24'2 1.9
2014-Aug-18 12:33N 37°47' W 122°22'1 0.7
2014-Aug-18 11:34N 37°47' W 122°23'1 1.4
2014-Aug-18 10:33N 37°48' W 122°24'  

Dump ship's entire track history